Time;durP1;ratioP1;P1;durP2;ratioP2;P2;SDS_P1;SDS_P2;PMS_P1;PMS_P2;Temp;Humidity;BMP_temperature;BMP_pressure;BME280_temperature;BME280_humidity;BME280_pressure;Samples;Min_cycle;Max_cycle;Signal;HPM_P1;HPM_P2
2021/06/03 00:02:09;;;;;;;2.83;2.63;;;19.60;82.80;;;;;;5052660;28;20024;-73
2021/06/03 00:04:35;;;;;;;5.18;2.78;;;19.60;83.10;;;;;;5047176;28;20399;-73
2021/06/03 00:07:00;;;;;;;2.90;2.60;;;19.50;83.60;;;;;;5043041;28;20042;-73
2021/06/03 00:09:26;;;;;;;3.67;2.83;;;19.40;83.70;;;;;;5055537;28;20025;-74
2021/06/03 00:11:52;;;;;;;3.22;2.85;;;19.40;83.50;;;;;;5061106;28;20025;-73
2021/06/03 00:14:18;;;;;;;3.90;2.80;;;19.40;83.80;;;;;;5058144;28;20029;-73
2021/06/03 00:16:44;;;;;;;7.53;2.50;;;19.40;83.70;;;;;;5062368;28;20079;-74
2021/06/03 00:19:10;;;;;;;4.63;2.70;;;19.40;83.60;;;;;;5047086;28;20500;-74
2021/06/03 00:21:39;;;;;;;3.50;2.88;;;19.40;83.80;;;;;;5051643;28;20090;-74
2021/06/03 00:24:06;;;;;;;4.97;2.70;;;19.30;84.70;;;;;;5049698;28;20020;-75
2021/06/03 00:26:33;;;;;;;4.57;2.65;;;19.30;84.70;;;;;;5043838;28;20123;-74
2021/06/03 00:28:59;;;;;;;3.00;2.80;;;19.30;84.20;;;;;;5064824;28;20373;-73
2021/06/03 00:31:25;;;;;;;3.83;2.88;;;19.20;84.90;;;;;;5061139;28;20021;-73
2021/06/03 00:33:50;;;;;;;3.20;2.67;;;19.20;84.50;;;;;;5058140;28;20021;-71
2021/06/03 00:36:16;;;;;;;3.40;3.10;;;19.20;84.70;;;;;;5061623;28;20029;-74
2021/06/03 00:38:42;;;;;;;4.38;2.60;;;19.20;84.70;;;;;;5065067;28;20598;-74
2021/06/03 00:41:08;;;;;;;3.00;2.63;;;19.10;85.10;;;;;;5042973;28;20074;-75
2021/06/03 00:43:34;;;;;;;3.13;2.83;;;19.10;85.00;;;;;;5057862;28;20020;-74
2021/06/03 00:46:00;;;;;;;3.22;2.75;;;19.10;85.10;;;;;;5061717;28;20036;-74
2021/06/03 00:48:26;;;;;;;3.72;2.92;;;19.10;85.70;;;;;;5067693;28;20024;-73
2021/06/03 00:50:54;;;;;;;5.25;2.60;;;19.00;85.70;;;;;;5061675;28;20028;-74
2021/06/03 00:53:20;;;;;;;3.17;2.65;;;19.00;85.00;;;;;;5046725;28;20032;-74
2021/06/03 00:55:49;;;;;;;3.38;2.88;;;19.00;85.50;;;;;;5019424;28;20029;-75
2021/06/03 00:58:15;;;;;;;3.42;2.88;;;19.00;86.10;;;;;;5062009;28;20100;-74
2021/06/03 01:00:41;;;;;;;3.95;2.80;;;18.90;86.60;;;;;;5061591;28;20369;-74
2021/06/03 01:03:07;;;;;;;4.45;3.00;;;18.70;87.00;;;;;;5055839;28;20069;-74
2021/06/03 01:05:42;;;;;;;3.10;2.80;;;18.80;86.90;;;;;;5074945;28;20104;-74
2021/06/03 01:08:12;;;;;;;5.00;2.65;;;18.70;87.80;;;;;;5043814;28;20024;-74
2021/06/03 01:10:48;;;;;;;4.18;3.00;;;18.50;88.60;;;;;;5057099;28;20488;-74
2021/06/03 01:13:44;;;;;;;5.60;2.80;;;18.40;89.30;;;;;;5074910;28;20067;-74
2021/06/03 01:16:12;;;;;;;3.60;2.70;;;18.30;90.30;;;;;;5070928;28;20025;-74
2021/06/03 01:18:40;;;;;;;3.25;2.92;;;18.10;90.30;;;;;;5054734;28;20025;-74
2021/06/03 01:21:11;;;;;;;4.18;2.80;;;18.00;90.50;;;;;;5067988;28;20033;-73
2021/06/03 01:23:56;;;;;;;3.95;2.90;;;18.00;90.60;;;;;;5066555;28;20017;-74
2021/06/03 01:26:21;;;;;;;4.35;3.20;;;18.10;90.50;;;;;;5049739;28;20021;-74
2021/06/03 01:28:48;;;;;;;4.05;3.05;;;18.10;90.60;;;;;;5074537;28;20095;-72
2021/06/03 01:31:14;;;;;;;3.28;2.80;;;18.10;90.50;;;;;;5066702;28;20021;-72
2021/06/03 01:33:41;;;;;;;3.10;2.53;;;18.10;90.70;;;;;;5068603;28;20097;-72
2021/06/03 01:36:12;;;;;;;6.07;2.83;;;18.10;90.90;;;;;;5074361;28;20451;-72
2021/06/03 01:38:40;;;;;;;3.22;2.90;;;18.10;90.70;;;;;;5042862;28;20025;-72
2021/06/03 01:41:08;;;;;;;3.72;3.00;;;18.10;91.00;;;;;;5074206;28;20110;-73
2021/06/03 01:43:36;;;;;;;2.92;2.47;;;18.10;90.90;;;;;;5074046;28;20053;-73
2021/06/03 01:46:03;;;;;;;4.15;2.78;;;18.20;90.90;;;;;;5074122;28;20503;-73
2021/06/03 01:48:29;;;;;;;3.38;3.08;;;18.10;91.00;;;;;;5074170;28;20117;-72
2021/06/03 01:50:58;;;;;;;3.45;2.78;;;18.00;91.50;;;;;;5074011;28;20495;-73
2021/06/03 01:53:26;;;;;;;3.50;2.90;;;18.00;91.60;;;;;;5057979;28;20036;-72
2021/06/03 01:55:52;;;;;;;3.30;3.00;;;18.00;91.60;;;;;;5039225;28;20029;-73
2021/06/03 01:58:20;;;;;;;3.17;2.88;;;18.00;91.40;;;;;;5065039;28;20048;-72
2021/06/03 02:00:46;;;;;;;3.05;2.50;;;17.90;91.90;;;;;;5053826;28;20127;-73
2021/06/03 02:03:11;;;;;;;3.65;2.78;;;17.80;92.00;;;;;;5071932;28;20028;-73
2021/06/03 02:05:37;;;;;;;3.50;2.83;;;17.80;92.00;;;;;;5073813;28;20028;-73
2021/06/03 02:08:04;;;;;;;3.78;2.92;;;17.80;92.20;;;;;;5073906;28;20052;-74
2021/06/03 02:10:29;;;;;;;3.47;3.17;;;17.70;92.80;;;;;;5073622;28;20016;-73
2021/06/03 02:13:05;;;;;;;4.40;2.75;;;17.60;93.00;;;;;;5073725;28;20028;-73
2021/06/03 02:15:34;;;;;;;4.75;2.97;;;17.60;93.30;;;;;;5072529;28;20027;-73
2021/06/03 02:18:03;;;;;;;3.60;3.22;;;17.60;93.60;;;;;;5060230;28;20040;-73
2021/06/03 02:20:35;;;;;;;3.67;2.80;;;17.60;94.00;;;;;;5073306;28;20087;-73
2021/06/03 02:23:01;;;;;;;4.07;3.00;;;17.50;94.40;;;;;;5073574;28;20030;-73
2021/06/03 02:25:29;;;;;;;4.15;3.67;;;17.10;95.80;;;;;;5073472;28;20020;-73
2021/06/03 02:27:56;;;;;;;4.38;3.55;;;16.60;99.60;;;;;;5055717;28;20127;-72
2021/06/03 02:30:22;;;;;;;5.70;3.72;;;16.00;99.90;;;;;;5055171;28;20043;-73
2021/06/03 02:32:49;;;;;;;3.50;3.20;;;15.90;99.90;;;;;;5073318;28;20025;-72
2021/06/03 02:35:16;;;;;;;8.05;3.00;;;15.90;99.90;;;;;;5059718;28;20028;-72
2021/06/03 02:37:44;;;;;;;5.43;3.10;;;15.90;99.90;;;;;;5055234;28;20048;-72
2021/06/03 02:40:14;;;;;;;4.88;3.45;;;15.80;99.90;;;;;;5073021;28;20020;-72
2021/06/03 02:42:41;;;;;;;3.85;3.45;;;15.60;99.90;;;;;;5073179;28;20511;-72
2021/06/03 02:45:12;;;;;;;4.25;3.60;;;15.70;99.90;;;;;;5073047;28;20025;-71
2021/06/03 02:47:39;;;;;;;3.83;3.40;;;15.40;99.90;;;;;;5072957;28;20024;-72
2021/06/03 02:50:09;;;;;;;3.92;3.42;;;15.40;99.90;;;;;;5054960;28;20365;-72
2021/06/03 02:52:35;;;;;;;5.40;3.55;;;15.30;99.90;;;;;;5074031;28;20028;-72
2021/06/03 02:55:03;;;;;;;3.60;3.30;;;15.10;99.90;;;;;;5067580;28;20093;-72
2021/06/03 02:57:28;;;;;;;3.80;3.50;;;14.80;99.90;;;;;;5063619;28;20016;-72
2021/06/03 02:59:54;;;;;;;4.18;3.63;;;14.80;99.90;;;;;;5072648;28;20027;-73
2021/06/03 03:02:19;;;;;;;4.28;3.45;;;14.90;99.90;;;;;;5059055;28;20021;-73
2021/06/03 03:04:45;;;;;;;4.95;3.75;;;15.00;99.90;;;;;;5070006;28;20424;-73
2021/06/03 03:07:11;;;;;;;5.15;3.80;;;15.00;99.90;;;;;;5072869;28;20388;-73
2021/06/03 03:09:37;;;;;;;3.85;3.50;;;14.80;99.90;;;;;;5072350;28;20029;-73
2021/06/03 03:12:03;;;;;;;4.93;3.63;;;14.70;99.90;;;;;;5072696;28;20036;-72
2021/06/03 03:14:30;;;;;;;8.85;4.20;;;14.80;99.90;;;;;;5058975;28;20031;-72
2021/06/03 03:16:56;;;;;;;4.72;3.85;;;14.60;99.90;;;;;;5061636;28;20021;-73
2021/06/03 03:19:21;;;;;;;5.05;3.88;;;14.40;99.90;;;;;;5052264;28;20426;-73
2021/06/03 03:21:47;;;;;;;4.80;3.92;;;14.40;99.90;;;;;;5063387;28;20100;-72
2021/06/03 03:24:12;;;;;;;5.90;3.95;;;14.10;99.90;;;;;;5072329;28;20032;-73
2021/06/03 03:26:38;;;;;;;5.38;4.53;;;14.40;99.90;;;;;;5072017;28;20025;-73
2021/06/03 03:29:03;;;;;;;5.43;3.67;;;14.30;99.90;;;;;;5072033;28;20032;-72
2021/06/03 03:31:29;;;;;;;4.75;3.60;;;14.30;99.90;;;;;;5072195;28;20063;-72
2021/06/03 03:33:56;;;;;;;4.80;3.72;;;14.20;99.90;;;;;;5054276;28;20035;-72
2021/06/03 03:36:22;;;;;;;5.75;3.63;;;14.20;99.90;;;;;;5072071;28;20021;-72
2021/06/03 03:38:47;;;;;;;4.75;3.78;;;14.20;99.90;;;;;;5058702;28;20028;-72
2021/06/03 03:41:13;;;;;;;6.65;4.03;;;14.10;99.90;;;;;;5061619;28;20041;-72
2021/06/03 03:43:38;;;;;;;4.68;3.83;;;14.20;99.90;;;;;;5065186;28;20021;-72
2021/06/03 03:46:04;;;;;;;5.60;4.07;;;14.10;99.90;;;;;;5062459;28;20033;-73
2021/06/03 03:48:29;;;;;;;4.85;4.18;;;14.10;99.90;;;;;;5036744;28;20017;-73
2021/06/03 03:50:55;;;;;;;5.07;3.95;;;14.30;99.90;;;;;;5062095;28;20025;-72
2021/06/03 03:53:21;;;;;;;6.95;4.15;;;14.30;99.90;;;;;;5071726;28;20024;-72
2021/06/03 03:55:46;;;;;;;4.43;4.03;;;14.40;99.90;;;;;;5057519;28;20507;-72
2021/06/03 03:58:12;;;;;;;4.70;3.80;;;14.30;99.90;;;;;;5051746;28;20087;-73
2021/06/03 04:00:38;;;;;;;4.55;3.75;;;14.30;99.90;;;;;;5061695;28;20039;-73
2021/06/03 04:03:06;;;;;;;4.03;3.72;;;14.10;99.90;;;;;;5055207;28;20107;-72
2021/06/03 04:05:31;;;;;;;4.18;3.78;;;14.30;99.90;;;;;;5071587;28;20021;-72
2021/06/03 04:07:57;;;;;;;4.88;4.20;;;14.40;99.90;;;;;;5040408;28;20021;-73
2021/06/03 04:10:22;;;;;;;4.53;3.60;;;14.50;99.90;;;;;;5061426;28;20476;-74
2021/06/03 04:12:49;;;;;;;6.63;4.00;;;14.50;99.90;;;;;;5064915;28;20028;-72
2021/06/03 04:15:15;;;;;;;6.20;4.25;;;14.60;99.90;;;;;;5061731;28;20480;-73
2021/06/03 04:17:41;;;;;;;4.50;3.97;;;14.60;99.90;;;;;;5036812;28;20031;-72
2021/06/03 04:20:10;;;;;;;4.78;4.00;;;14.70;99.90;;;;;;5033479;28;20025;-73
2021/06/03 04:22:35;;;;;;;4.32;3.92;;;14.80;99.90;;;;;;5068649;28;20085;-73
2021/06/03 04:25:01;;;;;;;5.88;4.22;;;14.90;99.90;;;;;;5071537;28;20044;-72
2021/06/03 04:27:27;;;;;;;4.60;4.20;;;15.00;99.90;;;;;;5056657;28;20089;-72
2021/06/03 04:29:53;;;;;;;4.15;3.75;;;15.00;99.90;;;;;;5051632;28;20540;-72
2021/06/03 04:32:18;;;;;;;4.20;3.75;;;15.10;99.90;;;;;;5036471;28;20017;-72
2021/06/03 04:34:44;;;;;;;4.20;3.80;;;15.30;99.90;;;;;;5061741;28;20025;-73
2021/06/03 04:37:11;;;;;;;4.35;3.95;;;15.40;99.90;;;;;;5057797;28;20116;-72
2021/06/03 04:39:37;;;;;;;5.45;3.97;;;15.50;99.90;;;;;;5075349;28;20039;-73
2021/06/03 04:42:04;;;;;;;4.20;3.88;;;15.50;99.90;;;;;;5061867;28;20032;-73
2021/06/03 04:44:29;;;;;;;5.15;4.25;;;15.40;99.90;;;;;;5057474;28;20024;-73
2021/06/03 04:46:55;;;;;;;4.85;4.45;;;15.50;99.90;;;;;;5075242;28;20103;-71
2021/06/03 04:49:20;;;;;;;5.95;4.45;;;15.60;99.90;;;;;;5075165;28;20031;-71
2021/06/03 04:51:46;;;;;;;5.05;4.22;;;15.50;99.90;;;;;;5075244;28;20020;-72
2021/06/03 04:54:11;;;;;;;4.45;4.05;;;15.50;99.90;;;;;;5073968;28;20097;-71
2021/06/03 04:56:37;;;;;;;5.82;4.63;;;15.50;99.90;;;;;;5059054;28;20027;-72
2021/06/03 04:59:03;;;;;;;9.35;4.50;;;15.70;99.90;;;;;;5064414;28;20035;-72
2021/06/03 05:01:29;;;;;;;4.85;4.30;;;15.90;99.90;;;;;;5055150;28;20048;-72
2021/06/03 05:03:54;;;;;;;5.22;4.28;;;16.10;99.90;;;;;;5054970;28;20032;-72
2021/06/03 05:06:20;;;;;;;5.18;4.20;;;16.10;99.90;;;;;;5058574;28;20031;-73
2021/06/03 05:08:45;;;;;;;5.53;3.95;;;16.20;99.90;;;;;;5074983;28;20154;-73
2021/06/03 05:11:11;;;;;;;4.25;3.85;;;16.40;99.90;;;;;;5074718;28;20024;-73
2021/06/03 05:13:36;;;;;;;4.47;4.07;;;16.50;99.90;;;;;;5074870;28;20105;-72
2021/06/03 05:16:02;;;;;;;6.18;4.13;;;16.60;99.90;;;;;;5071666;28;20096;-72
2021/06/03 05:18:28;;;;;;;4.93;3.55;;;16.80;99.90;;;;;;5054674;28;20029;-73
2021/06/03 05:20:53;;;;;;;3.90;3.58;;;16.90;99.90;;;;;;5070838;28;20111;-73
2021/06/03 05:23:20;;;;;;;4.07;3.42;;;16.80;99.90;;;;;;5074691;28;20024;-73
2021/06/03 05:25:46;;;;;;;5.07;3.90;;;17.10;99.90;;;;;;5074495;28;20025;-73
2021/06/03 05:28:13;;;;;;;4.95;3.60;;;17.20;99.90;;;;;;5074628;28;20066;-73
2021/06/03 05:30:38;;;;;;;4.40;3.53;;;17.20;99.90;;;;;;5061004;28;20095;-73
2021/06/03 05:33:04;;;;;;;5.28;3.67;;;17.30;99.90;;;;;;5064709;28;20100;-73
2021/06/03 05:35:30;;;;;;;5.15;3.45;;;17.40;99.90;;;;;;5036403;28;20021;-73
2021/06/03 05:37:56;;;;;;;5.07;3.80;;;17.60;99.90;;;;;;5064142;28;20510;-73
2021/06/03 05:40:24;;;;;;;4.70;3.75;;;17.60;99.90;;;;;;5071427;28;20060;-73
2021/06/03 05:42:52;;;;;;;4.25;3.80;;;17.70;99.90;;;;;;5054293;28;20108;-74
2021/06/03 05:45:18;;;;;;;8.65;3.75;;;17.80;99.90;;;;;;5067619;28;20032;-73
2021/06/03 05:47:43;;;;;;;4.00;3.28;;;18.00;99.90;;;;;;5046944;28;20029;-73
2021/06/03 05:50:12;;;;;;;5.60;3.20;;;18.30;99.90;;;;;;5057369;28;20047;-73
2021/06/03 05:52:40;;;;;;;6.88;3.83;;;18.40;99.90;;;;;;5046249;28;20075;-73
2021/06/03 05:55:07;;;;;;;6.30;3.35;;;18.40;99.90;;;;;;5063035;28;20079;-73
2021/06/03 05:57:33;;;;;;;4.00;3.60;;;18.50;99.90;;;;;;5047666;28;20387;-74
2021/06/03 05:59:58;;;;;;;4.78;4.25;;;18.60;99.90;;;;;;5055502;28;20096;-73
2021/06/03 06:02:32;;;;;;;4.53;3.53;;;18.70;99.90;;;;;;5053891;28;20052;-73
2021/06/03 06:07:42;;;;;;;4.03;3.50;;;18.70;99.90;;;;;;5055332;28;20056;-73
2021/06/03 06:10:08;;;;;;;3.70;3.40;;;18.70;99.90;;;;;;5065806;28;20053;-73
2021/06/03 06:12:33;;;;;;;5.82;3.85;;;18.90;99.90;;;;;;5068512;28;20103;-73
2021/06/03 06:14:59;;;;;;;5.63;3.28;;;19.00;99.90;;;;;;5073791;28;20524;-73
2021/06/03 06:17:25;;;;;;;5.05;3.45;;;19.30;99.90;;;;;;5058956;28;20627;-72
2021/06/03 06:19:50;;;;;;;6.20;3.53;;;19.40;99.90;;;;;;5061471;28;20044;-73
2021/06/03 06:22:16;;;;;;;5.05;3.50;;;19.60;99.90;;;;;;5073716;28;20035;-73
2021/06/03 06:24:45;;;;;;;3.58;3.28;;;19.70;99.90;;;;;;5065675;28;20443;-74
2021/06/03 06:27:11;;;;;;;4.63;3.63;;;19.80;99.90;;;;;;5068470;28;20021;-73
2021/06/03 06:29:36;;;;;;;3.55;3.25;;;19.80;99.90;;;;;;5073387;28;20043;-73
2021/06/03 06:32:02;;;;;;;4.40;3.15;;;19.90;99.90;;;;;;5073371;28;20025;-73
2021/06/03 06:34:27;;;;;;;4.43;3.30;;;20.00;99.90;;;;;;5055328;28;20086;-73
2021/06/03 06:36:53;;;;;;;5.43;3.40;;;20.10;99.90;;;;;;5073209;28;20074;-74
2021/06/03 06:39:18;;;;;;;3.67;3.35;;;20.30;99.90;;;;;;5073048;28;20051;-73
2021/06/03 06:41:45;;;;;;;3.65;3.35;;;20.40;99.90;;;;;;5073183;28;20036;-73
2021/06/03 06:44:10;;;;;;;3.97;3.58;;;20.40;99.90;;;;;;5055199;28;20028;-73
2021/06/03 06:46:36;;;;;;;7.55;3.60;;;20.60;99.90;;;;;;5072934;28;20032;-73
2021/06/03 06:49:02;;;;;;;4.30;3.53;;;20.50;99.90;;;;;;5072773;28;20039;-73
2021/06/03 06:51:27;;;;;;;6.35;3.17;;;20.60;99.90;;;;;;5058458;28;20028;-73
2021/06/03 06:53:53;;;;;;;6.32;3.70;;;20.70;99.90;;;;;;5042719;28;20169;-73
2021/06/03 06:56:18;;;;;;;6.05;3.92;;;20.70;99.90;;;;;;5037857;28;20064;-73
2021/06/03 06:58:44;;;;;;;3.88;3.20;;;20.80;99.90;;;;;;5073316;28;20042;-74
2021/06/03 07:01:09;;;;;;;4.78;3.88;;;20.90;99.90;;;;;;5059140;28;20071;-74
2021/06/03 07:03:35;;;;;;;6.53;3.65;;;20.80;99.90;;;;;;5065355;28;20480;-73
2021/06/03 07:06:01;;;;;;;8.13;3.30;;;20.90;99.90;;;;;;5067475;28;20059;-73
2021/06/03 07:08:26;;;;;;;5.10;3.70;;;20.70;99.90;;;;;;5065625;28;20546;-74
2021/06/03 07:10:54;;;;;;;4.47;3.80;;;20.60;99.90;;;;;;5067100;28;20028;-72
2021/06/03 07:13:20;;;;;;;4.72;3.63;;;20.70;99.90;;;;;;5065141;28;20075;-73
2021/06/03 07:15:45;;;;;;;6.28;3.50;;;21.00;99.90;;;;;;5048115;28;20028;-73
2021/06/03 07:18:11;;;;;;;8.68;3.90;;;21.10;99.90;;;;;;5060369;28;20036;-73
2021/06/03 07:20:37;;;;;;;5.70;3.63;;;21.00;99.90;;;;;;5059025;28;20071;-72
2021/06/03 07:23:04;;;;;;;6.72;3.75;;;21.00;99.90;;;;;;5064673;28;20031;-73
2021/06/03 07:25:31;;;;;;;5.85;3.22;;;21.10;99.90;;;;;;5067451;28;20021;-73
2021/06/03 07:27:57;;;;;;;3.85;3.10;;;21.10;99.90;;;;;;5072910;28;20048;-73
2021/06/03 07:30:24;;;;;;;3.88;3.10;;;21.10;99.90;;;;;;5071462;28;20488;-73
2021/06/03 07:32:50;;;;;;;4.40;3.20;;;21.20;99.90;;;;;;5061369;28;20480;-73
2021/06/03 07:35:16;;;;;;;7.32;3.42;;;21.20;99.90;;;;;;5072893;28;20030;-72
2021/06/03 07:37:43;;;;;;;4.25;3.22;;;21.40;99.90;;;;;;5064774;28;20052;-73
2021/06/03 07:40:11;;;;;;;3.50;3.20;;;21.60;99.90;;;;;;5067829;28;20081;-73
2021/06/03 07:42:38;;;;;;;9.57;4.00;;;21.70;99.90;;;;;;5072612;28;20054;-74
2021/06/03 07:45:08;;;;;;;3.95;3.63;;;21.90;99.90;;;;;;5040878;28;20492;-75
2021/06/03 07:47:34;;;;;;;4.38;3.50;;;21.90;99.90;;;;;;5072013;28;20024;-72
2021/06/03 07:50:00;;;;;;;5.93;3.47;;;21.90;99.90;;;;;;5058720;28;20515;-73
2021/06/03 07:52:25;;;;;;;9.43;4.05;;;21.80;99.90;;;;;;5045909;28;20052;-73
2021/06/03 07:54:51;;;;;;;4.93;3.60;;;21.90;99.90;;;;;;5052517;28;20051;-73
2021/06/03 07:57:17;;;;;;;3.58;3.28;;;22.00;99.90;;;;;;5061650;28;20077;-73
2021/06/03 07:59:43;;;;;;;3.95;3.50;;;22.20;99.90;;;;;;5058401;28;20021;-73
2021/06/03 08:02:09;;;;;;;5.68;3.65;;;22.30;99.90;;;;;;5062983;28;20039;-73
2021/06/03 08:04:35;;;;;;;6.75;3.80;;;22.20;99.90;;;;;;5066015;28;20032;-73
2021/06/03 08:07:00;;;;;;;3.50;3.20;;;22.10;99.90;;;;;;5034839;28;20017;-74
2021/06/03 08:09:26;;;;;;;7.00;3.80;;;22.30;99.90;;;;;;5065164;28;20017;-73
2021/06/03 08:11:51;;;;;;;4.50;3.53;;;22.50;99.90;;;;;;5051808;28;20017;-73
2021/06/03 08:14:17;;;;;;;6.05;3.65;;;22.50;99.90;;;;;;5047300;28;20031;-73
2021/06/03 08:16:42;;;;;;;4.50;3.47;;;22.50;99.90;;;;;;5061931;28;20099;-73
2021/06/03 08:19:08;;;;;;;4.13;3.47;;;22.50;99.90;;;;;;5038453;28;20048;-73
2021/06/03 08:21:34;;;;;;;4.03;3.25;;;22.70;99.90;;;;;;5052360;28;20039;-73
2021/06/03 08:24:01;;;;;;;4.43;3.40;;;22.90;99.90;;;;;;5052419;28;20043;-73
2021/06/03 08:26:28;;;;;;;4.95;3.05;;;23.00;99.90;;;;;;5052482;28;20033;-73
2021/06/03 08:28:56;;;;;;;3.78;3.47;;;22.70;99.90;;;;;;5052090;28;20370;-73
2021/06/03 08:31:26;;;;;;;3.58;3.28;;;22.80;99.90;;;;;;5052088;28;20104;-73
2021/06/03 08:33:53;;;;;;;4.28;3.65;;;23.00;99.90;;;;;;5047244;28;20025;-73
2021/06/03 08:36:21;;;;;;;4.97;3.53;;;23.00;99.90;;;;;;5051973;28;20051;-73
2021/06/03 08:38:46;;;;;;;3.83;3.47;;;23.10;99.90;;;;;;5065518;28;20021;-73
2021/06/03 08:41:12;;;;;;;5.40;3.47;;;23.00;99.90;;;;;;5051999;28;20032;-73
2021/06/03 08:43:37;;;;;;;4.05;3.60;;;23.20;99.90;;;;;;5046508;28;20033;-73
2021/06/03 08:46:04;;;;;;;4.93;3.28;;;23.00;99.90;;;;;;5060916;28;20178;-73
2021/06/03 08:48:31;;;;;;;4.95;3.55;;;23.20;99.90;;;;;;5069849;28;20154;-73
2021/06/03 08:51:00;;;;;;;4.68;3.08;;;23.30;99.90;;;;;;5060743;28;20457;-73
2021/06/03 08:53:26;;;;;;;6.03;3.45;;;23.20;99.90;;;;;;5058550;28;20039;-73
2021/06/03 08:58:37;;;;;;;4.35;3.17;;;23.60;99.90;;;;;;5045616;28;20028;-73
2021/06/03 09:01:05;;;;;;;5.03;3.63;;;23.50;99.90;;;;;;5058268;28;20025;-73
2021/06/03 09:03:31;;;;;;;4.70;3.25;;;23.40;99.90;;;;;;5045056;28;20392;-73
2021/06/03 09:05:57;;;;;;;3.53;3.22;;;23.60;99.90;;;;;;5040313;28;20091;-73
2021/06/03 09:08:26;;;;;;;4.40;3.55;;;23.70;99.90;;;;;;5051795;28;20025;-73
2021/06/03 09:10:54;;;;;;;5.78;4.03;;;24.10;99.90;;;;;;5051255;28;20102;-73
2021/06/03 09:13:35;;;;;;;5.22;3.40;;;23.90;99.90;;;;;;5046382;28;20032;-73
2021/06/03 09:16:09;;;;;;;5.18;3.35;;;24.00;99.90;;;;;;5048856;28;20025;-72
2021/06/03 09:18:40;;;;;;;5.57;3.10;;;24.30;99.90;;;;;;5053079;28;20052;-72
2021/06/03 09:21:19;;;;;;;4.47;2.97;;;24.20;99.90;;;;;;5070867;28;20036;-73
2021/06/03 09:24:02;;;;;;;4.13;3.25;;;24.00;99.90;;;;;;5071910;28;20020;-73
2021/06/03 09:26:37;;;;;;;4.13;3.72;;;24.00;99.90;;;;;;5048450;28;20025;-74
2021/06/03 09:29:05;;;;;;;6.43;3.55;;;24.40;99.90;;;;;;5068043;28;20029;-73
2021/06/03 09:31:32;;;;;;;6.45;3.65;;;24.50;99.90;;;;;;5054704;28;20370;-73
2021/06/03 09:34:08;;;;;;;4.95;3.42;;;24.90;99.90;;;;;;5050155;28;20094;-74
2021/06/03 09:36:40;;;;;;;5.53;3.70;;;24.90;99.90;;;;;;5048133;28;20028;-73
2021/06/03 09:39:13;;;;;;;4.50;3.70;;;24.60;99.90;;;;;;5069221;28;20083;-73
2021/06/03 09:41:43;;;;;;;5.05;3.60;;;24.70;99.90;;;;;;5067751;28;20104;-73
2021/06/03 09:44:16;;;;;;;7.18;3.90;;;24.90;99.90;;;;;;5049372;28;20467;-73
2021/06/03 09:46:45;;;;;;;8.82;3.88;;;25.20;99.90;;;;;;5049770;28;20032;-73
2021/06/03 09:49:17;;;;;;;4.90;3.30;;;24.90;99.90;;;;;;5062216;28;20024;-73
2021/06/03 09:51:45;;;;;;;5.97;5.30;;;24.90;99.90;;;;;;5072174;28;20078;-73
2021/06/03 09:54:13;;;;;;;5.20;3.50;;;25.20;99.90;;;;;;5044337;28;20078;-73
2021/06/03 09:56:42;;;;;;;5.35;4.25;;;25.50;99.90;;;;;;5054074;28;20519;-73
2021/06/03 09:59:16;;;;;;;6.20;3.80;;;25.30;99.90;;;;;;5065242;28;20028;-73
2021/06/03 10:01:50;;;;;;;16.85;11.98;;;25.40;99.90;;;;;;5060902;28;20021;-73
2021/06/03 10:04:21;;;;;;;6.15;3.90;;;25.80;99.90;;;;;;5060449;28;20551;-73
2021/06/03 10:06:55;;;;;;;5.75;3.40;;;26.10;99.40;;;;;;5074221;28;20442;-73
2021/06/03 10:09:51;;;;;;;4.97;3.47;;;25.50;99.90;;;;;;5058888;28;20045;-73
2021/06/03 10:12:22;;;;;;;4.45;3.50;;;25.40;99.90;;;;;;5066218;28;20027;-73
2021/06/03 10:14:54;;;;;;;3.95;2.90;;;25.50;99.90;;;;;;5060436;28;20445;-73
2021/06/03 10:17:26;;;;;;;4.85;3.20;;;25.80;98.30;;;;;;5060044;28;20021;-73
2021/06/03 10:19:53;;;;;;;6.28;3.50;;;25.70;99.90;;;;;;5061135;28;20081;-73
2021/06/03 10:22:24;;;;;;;6.80;3.45;;;25.80;99.90;;;;;;5059570;28;20020;-73
2021/06/03 10:24:55;;;;;;;3.38;2.95;;;26.00;99.90;;;;;;5040572;28;20025;-73
2021/06/03 10:27:24;;;;;;;3.72;3.30;;;26.20;98.70;;;;;;5055439;28;20484;-73
2021/06/03 10:29:51;;;;;;;3.20;2.90;;;26.00;98.10;;;;;;5064967;28;20095;-73
2021/06/03 10:32:19;;;;;;;3.05;2.75;;;26.00;95.60;;;;;;5035883;28;20047;-73
2021/06/03 10:34:45;;;;;;;3.78;2.72;;;25.70;94.00;;;;;;5062425;28;20032;-73
2021/06/03 10:37:13;;;;;;;4.72;2.90;;;26.00;97.20;;;;;;5059804;28;20052;-73
2021/06/03 10:39:40;;;;;;;4.07;2.80;;;26.50;95.90;;;;;;5073442;28;20025;-73
2021/06/03 10:42:06;;;;;;;4.25;2.95;;;26.30;91.40;;;;;;5057485;28;20078;-73
2021/06/03 10:44:32;;;;;;;4.28;2.30;;;26.50;91.70;;;;;;5062654;28;20119;-73
2021/06/03 10:46:58;;;;;;;4.75;2.65;;;26.60;89.60;;;;;;5060070;28;20044;-73
2021/06/03 10:49:27;;;;;;;5.75;2.38;;;26.60;90.10;;;;;;5063357;28;20033;-73
2021/06/03 10:51:53;;;;;;;3.08;2.33;;;27.00;89.90;;;;;;5053671;28;20025;-73
2021/06/03 10:54:45;;;;;;;2.40;2.20;;;27.30;86.20;;;;;;5043498;28;20502;-73
2021/06/03 10:57:15;;;;;;;4.22;2.38;;;27.20;84.00;;;;;;5049808;28;20117;-73
2021/06/03 10:59:41;;;;;;;3.38;2.38;;;27.20;84.70;;;;;;5059952;28;20083;-73
2021/06/03 11:02:09;;;;;;;3.35;2.72;;;27.50;85.20;;;;;;5052382;28;20055;-73
2021/06/03 11:04:37;;;;;;;3.50;2.67;;;27.50;84.60;;;;;;5057591;28;20028;-73
2021/06/03 11:07:05;;;;;;;3.35;2.80;;;27.50;86.40;;;;;;5061585;28;20539;-73
2021/06/03 11:09:34;;;;;;;3.17;2.63;;;27.80;80.30;;;;;;5038786;28;20518;-73
2021/06/03 11:12:11;;;;;;;3.20;2.80;;;27.40;79.60;;;;;;5061476;28;20029;-73
2021/06/03 11:15:06;;;;;;;4.65;2.50;;;27.40;88.60;;;;;;5051719;28;20711;-73
2021/06/03 11:17:57;;;;;;;3.60;3.20;;;27.00;84.80;;;;;;5054967;28;20052;-73
2021/06/03 11:20:51;;;;;;;3.63;2.97;;;27.50;82.60;;;;;;5060503;28;20040;-73
2021/06/03 11:23:35;;;;;;;3.97;3.00;;;27.60;82.20;;;;;;5062598;28;20070;-73
2021/06/03 11:26:05;;;;;;;5.22;3.58;;;27.80;79.70;;;;;;5041549;28;20016;-73
2021/06/03 11:28:31;;;;;;;4.25;3.30;;;28.00;81.60;;;;;;5072909;28;20082;-73
2021/06/03 11:31:19;;;;;;;4.43;3.00;;;28.10;78.10;;;;;;5059370;28;20017;-73
2021/06/03 11:34:04;;;;;;;4.72;4.10;;;28.30;69.60;;;;;;5039575;28;20369;-73
2021/06/03 11:36:31;;;;;;;3.83;2.50;;;27.90;76.50;;;;;;5052872;28;20029;-73
2021/06/03 11:38:56;;;;;;;2.78;2.50;;;28.00;64.30;;;;;;5039899;28;20637;-73
2021/06/03 11:41:39;;;;;;;4.18;2.92;;;28.00;70.20;;;;;;5061030;28;20544;-73
2021/06/03 11:44:10;;;;;;;5.80;2.83;;;27.70;73.80;;;;;;5014925;28;20167;-73
2021/06/03 11:46:50;;;;;;;2.78;2.40;;;27.70;71.90;;;;;;5060193;28;20107;-73
2021/06/03 11:49:35;;;;;;;3.53;2.53;;;27.80;66.50;;;;;;5062187;28;20499;-73
2021/06/03 11:52:17;;;;;;;3.88;2.80;;;28.50;69.10;;;;;;5059028;28;20059;-73
2021/06/03 11:54:57;;;;;;;5.10;3.45;;;28.60;70.80;;;;;;5058214;28;20028;-74
2021/06/03 11:57:28;;;;;;;3.25;2.95;;;28.40;72.00;;;;;;5061804;28;20024;-74
2021/06/03 11:59:57;;;;;;;2.70;2.50;;;28.10;73.40;;;;;;5058689;28;20024;-73
2021/06/03 12:02:27;;;;;;;3.65;2.53;;;28.40;70.30;;;;;;5060917;28;20031;-73
2021/06/03 12:05:11;;;;;;;4.53;2.92;;;28.60;72.50;;;;;;5039121;28;20563;-73
2021/06/03 12:07:40;;;;;;;3.30;2.70;;;28.80;74.20;;;;;;5070988;28;20016;-73
2021/06/03 12:10:06;;;;;;;5.78;3.00;;;28.80;71.10;;;;;;5051651;28;20757;-73
2021/06/03 12:12:32;;;;;;;3.88;2.90;;;28.60;70.70;;;;;;5065494;28;20032;-73
2021/06/03 12:14:58;;;;;;;3.22;2.83;;;29.20;71.10;;;;;;5041929;28;20024;-73
2021/06/03 12:17:24;;;;;;;2.90;2.70;;;29.60;70.80;;;;;;5057042;28;20036;-73
2021/06/03 12:19:52;;;;;;;3.53;3.10;;;29.30;70.90;;;;;;5059447;28;20027;-73
2021/06/03 12:22:21;;;;;;;3.35;3.05;;;29.50;70.70;;;;;;5058176;28;20028;-73
2021/06/03 12:24:49;;;;;;;4.93;2.78;;;29.50;69.80;;;;;;5062867;28;20473;-73
2021/06/03 12:27:32;;;;;;;4.57;2.97;;;29.60;70.60;;;;;;5051703;28;20063;-73
2021/06/03 12:30:21;;;;;;;3.55;2.50;;;29.70;69.70;;;;;;5062949;28;20384;-73
2021/06/03 12:33:02;;;;;;;3.20;2.40;;;30.30;66.00;;;;;;5029189;28;20032;-74
2021/06/03 12:35:41;;;;;;;4.80;2.67;;;30.90;64.10;;;;;;5055173;28;20036;-73
2021/06/03 12:38:07;;;;;;;3.30;3.00;;;30.70;69.30;;;;;;5063080;28;20086;-73
2021/06/03 12:40:34;;;;;;;5.70;3.30;;;30.90;66.90;;;;;;5053003;28;20017;-73
2021/06/03 12:43:07;;;;;;;3.38;2.90;;;30.80;69.10;;;;;;5051421;28;20495;-73
2021/06/03 12:45:37;;;;;;;3.72;3.33;;;30.50;69.60;;;;;;5057089;28;20112;-73
2021/06/03 12:48:08;;;;;;;3.65;3.35;;;30.70;67.70;;;;;;5071828;28;20016;-73
2021/06/03 12:50:43;;;;;;;3.10;2.78;;;30.50;65.00;;;;;;5071533;28;20473;-71
2021/06/03 12:53:15;;;;;;;3.65;3.35;;;29.40;67.30;;;;;;5051770;28;20060;-73
2021/06/03 12:55:42;;;;;;;4.75;3.20;;;28.20;66.70;;;;;;5043622;28;20033;-74
2021/06/03 12:58:10;;;;;;;3.78;3.45;;;28.40;69.80;;;;;;5050750;28;20032;-73
2021/06/03 13:00:37;;;;;;;4.07;3.40;;;29.60;69.70;;;;;;5064881;28;20036;-73